Time;durP1;ratioP1;P1;durP2;ratioP2;P2;SDS_P1;SDS_P2;PMS_P1;PMS_P2;Temp;Humidity;BMP_temperature;BMP_pressure;BME280_temperature;BME280_humidity;BME280_pressure;Samples;Min_cycle;Max_cycle;Signal;HPM_P1;HPM_P2
2023/07/16 00:00:36;;;;;;;9.27;6.10;;;;;;;23.72;77.48;94787.06;4912976;29;20664;-76
2023/07/16 00:03:03;;;;;;;11.68;6.55;;;;;;;23.66;77.89;94799.75;4913075;29;20240;-76
2023/07/16 00:05:30;;;;;;;9.13;6.10;;;;;;;23.67;77.81;94795.81;4913739;29;20992;-76
2023/07/16 00:07:57;;;;;;;10.07;6.15;;;;;;;23.69;77.71;94787.88;4913987;29;20212;-76
2023/07/16 00:10:24;;;;;;;9.23;5.97;;;;;;;23.72;77.49;94793.41;4913978;29;20209;-76
2023/07/16 00:12:51;;;;;;;11.60;5.82;;;;;;;23.70;77.67;94795.00;4913492;29;20378;-76
2023/07/16 00:15:19;;;;;;;7.40;5.97;;;;;;;23.61;78.07;94791.91;4913470;29;20668;-75
2023/07/16 00:17:45;;;;;;;8.35;5.63;;;;;;;23.58;78.38;94793.50;4913413;29;20244;-76
2023/07/16 00:20:13;;;;;;;9.15;5.85;;;;;;;23.62;77.76;94787.97;4913771;29;20605;-76
2023/07/16 00:22:39;;;;;;;8.55;5.80;;;;;;;23.60;77.99;94787.56;4913981;29;20212;-76
2023/07/16 00:25:07;;;;;;;11.30;5.60;;;;;;;23.59;78.01;94797.06;4913781;29;20212;-77
2023/07/16 00:27:34;;;;;;;9.07;5.32;;;;;;;23.58;77.86;94789.97;4913360;29;20585;-75
2023/07/16 00:30:01;;;;;;;8.00;5.30;;;;;;;23.57;77.74;94786.41;4913094;29;20580;-75
2023/07/16 00:32:29;;;;;;;6.70;4.57;;;;;;;23.56;78.23;94795.09;4913635;29;20493;-76
2023/07/16 00:34:56;;;;;;;10.52;5.63;;;;;;;23.44;78.77;94795.56;4913243;29;20287;-76
2023/07/16 00:37:23;;;;;;;8.27;4.78;;;;;;;23.43;78.69;94794.00;4913232;29;20216;-75
2023/07/16 00:39:49;;;;;;;7.97;3.95;;;;;;;23.42;78.88;94800.72;4913142;29;20968;-76
2023/07/16 00:42:16;;;;;;;6.53;4.75;;;;;;;23.36;79.09;94792.84;4900833;29;20209;-75
2023/07/16 00:44:43;;;;;;;8.25;5.70;;;;;;;23.33;79.15;94798.41;4912266;29;20205;-75
2023/07/16 00:47:10;;;;;;;9.20;5.25;;;;;;;23.27;79.48;94795.28;4911905;29;20748;-72
2023/07/16 00:49:39;;;;;;;7.07;5.18;;;;;;;23.19;79.87;94788.22;4911723;29;20200;-76
2023/07/16 00:52:09;;;;;;;11.02;5.35;;;;;;;23.20;79.69;94792.56;4912188;29;20232;-74
2023/07/16 00:54:36;;;;;;;7.07;4.82;;;;;;;23.15;79.86;94787.44;4912577;29;20212;-75
2023/07/16 00:57:03;;;;;;;8.10;4.60;;;;;;;23.12;80.00;94799.31;4913000;29;20213;-75
2023/07/16 00:59:29;;;;;;;7.28;5.28;;;;;;;23.06;80.47;94789.09;4912425;29;20201;-75
2023/07/16 01:01:56;;;;;;;8.35;5.30;;;;;;;23.04;80.62;94797.78;4912683;29;20225;-74
2023/07/16 01:04:23;;;;;;;9.98;5.10;;;;;;;23.05;80.17;94799.38;4912730;29;20212;-75
2023/07/16 01:06:54;;;;;;;6.50;4.20;;;;;;;23.08;79.93;94793.03;4912801;29;20208;-74
2023/07/16 01:09:21;;;;;;;7.00;3.80;;;;;;;23.11;79.68;94786.69;4912944;29;20223;-76
2023/07/16 01:11:50;;;;;;;8.38;4.57;;;;;;;23.12;79.45;94787.47;4912573;29;20830;-75
2023/07/16 01:14:18;;;;;;;6.20;4.28;;;;;;;23.10;79.72;94785.09;4913080;29;20211;-74
2023/07/16 01:16:45;;;;;;;7.45;4.90;;;;;;;23.01;80.04;94784.78;4912517;29;20208;-74
2023/07/16 01:19:13;;;;;;;7.05;4.53;;;;;;;22.96;80.42;94794.25;4912647;29;20739;-75
2023/07/16 01:21:52;;;;;;;7.68;5.25;;;;;;;22.99;80.16;94792.66;4912645;29;20244;-74
2023/07/16 01:24:52;;;;;;;6.70;4.38;;;;;;;22.94;79.98;94787.59;4912551;29;20208;-76
2023/07/16 01:27:35;;;;;;;6.57;4.65;;;;;;;22.99;80.02;94800.97;4912550;29;20205;-75
2023/07/16 01:30:05;;;;;;;7.72;4.80;;;;;;;22.98;80.16;94793.84;4912696;29;20204;-76
2023/07/16 01:32:33;;;;;;;9.43;4.47;;;;;;;22.97;79.96;94792.28;4900191;29;20338;-76
2023/07/16 01:35:01;;;;;;;6.93;4.53;;;;;;;22.96;79.98;94779.69;4911866;29;20660;-71
2023/07/16 01:37:28;;;;;;;8.50;5.57;;;;;;;22.95;80.02;94778.09;4912228;29;20668;-75
2023/07/16 01:39:55;;;;;;;5.50;4.15;;;;;;;22.94;80.13;94790.34;4912325;29;20212;-75
2023/07/16 01:42:21;;;;;;;4.78;4.18;;;;;;;22.85;80.43;94789.97;4912213;29;20686;-74
2023/07/16 01:44:48;;;;;;;5.40;3.90;;;;;;;22.84;80.56;94791.16;4912054;29;20263;-75
2023/07/16 01:47:24;;;;;;;6.63;4.20;;;;;;;22.78;80.68;94790.03;4912403;29;20228;-75
2023/07/16 01:49:51;;;;;;;9.15;4.43;;;;;;;22.78;80.89;94801.06;4912046;29;20239;-75
2023/07/16 01:52:17;;;;;;;7.20;4.40;;;;;;;22.69;81.09;94793.97;4911970;29;20698;-75
2023/07/16 01:54:44;;;;;;;5.72;4.22;;;;;;;22.66;81.03;94794.00;4912345;29;20220;-76
2023/07/16 01:57:11;;;;;;;11.32;3.53;;;;;;;22.67;81.02;94801.09;4912309;29;20743;-75
2023/07/16 01:59:38;;;;;;;4.85;3.85;;;;;;;22.65;80.91;94793.22;4911715;29;20228;-74
2023/07/16 02:02:05;;;;;;;6.13;3.63;;;;;;;22.62;81.35;94804.25;4911857;29;20266;-75
2023/07/16 02:04:34;;;;;;;5.28;4.43;;;;;;;22.56;81.59;94803.88;4911823;29;20218;-75
2023/07/16 02:07:00;;;;;;;6.50;4.45;;;;;;;22.52;81.84;94805.09;4911750;29;20216;-75
2023/07/16 02:09:27;;;;;;;9.70;3.92;;;;;;;22.48;81.97;94799.56;4911656;29;20676;-75
2023/07/16 02:11:54;;;;;;;7.05;4.10;;;;;;;22.46;82.14;94806.69;4911887;29;20267;-75
2023/07/16 02:14:21;;;;;;;6.20;4.20;;;;;;;22.40;82.43;94798.03;4912404;29;20212;-75
2023/07/16 02:16:47;;;;;;;6.10;3.92;;;;;;;22.28;82.97;94806.72;4911741;29;20682;-76
2023/07/16 02:19:14;;;;;;;7.35;4.63;;;;;;;22.18;83.62;94802.00;4911886;29;20272;-75
2023/07/16 02:21:42;;;;;;;7.28;4.22;;;;;;;22.14;83.83;94802.00;4911017;29;20311;-74
2023/07/16 02:24:09;;;;;;;11.95;4.63;;;;;;;22.12;83.97;94800.88;4912185;29;20656;-75
2023/07/16 02:26:36;;;;;;;5.70;4.45;;;;;;;22.10;83.94;94811.50;4915556;29;20682;-75
2023/07/16 02:29:03;;;;;;;5.82;3.85;;;;;;;22.08;83.88;94809.13;4915089;29;20223;-75
2023/07/16 02:31:29;;;;;;;6.00;4.18;;;;;;;22.04;84.35;94808.34;4915374;29;20663;-75
2023/07/16 02:33:56;;;;;;;6.47;3.97;;;;;;;22.04;84.48;94810.31;4919200;29;20212;-75
2023/07/16 02:36:23;;;;;;;6.95;5.97;;;;;;;22.02;84.45;94809.91;4922530;29;20333;-75
2023/07/16 02:38:51;;;;;;;6.93;4.22;;;;;;;21.94;84.89;94809.91;4915212;29;20683;-75
2023/07/16 02:41:18;;;;;;;5.57;3.92;;;;;;;21.93;84.93;94819.38;4915428;29;20599;-75
2023/07/16 02:43:46;;;;;;;6.80;3.95;;;;;;;22.00;84.52;94807.59;4915489;29;20271;-75
2023/07/16 02:46:13;;;;;;;6.50;4.25;;;;;;;21.94;84.80;94812.69;4915378;29;20208;-75
2023/07/16 02:48:40;;;;;;;7.57;4.15;;;;;;;21.91;85.15;94815.44;4918274;29;20211;-75
2023/07/16 02:51:07;;;;;;;6.25;3.65;;;;;;;21.91;85.19;94810.69;4918510;29;20255;-75
2023/07/16 02:53:34;;;;;;;5.10;4.05;;;;;;;21.84;85.28;94810.72;4930964;29;20777;-75
2023/07/16 02:56:02;;;;;;;6.78;4.05;;;;;;;21.89;84.90;94817.78;4926355;29;20495;-76
2023/07/16 02:58:29;;;;;;;7.45;3.88;;;;;;;21.88;85.09;94811.47;4917975;29;20209;-75
2023/07/16 03:00:55;;;;;;;6.50;4.03;;;;;;;21.84;85.06;94810.72;4914663;29;20262;-75
2023/07/16 03:03:22;;;;;;;5.25;3.75;;;;;;;21.82;85.45;94813.06;4927134;29;20209;-75
2023/07/16 03:05:49;;;;;;;6.90;4.32;;;;;;;21.84;85.28;94821.75;4922750;29;20200;-73
2023/07/16 03:08:16;;;;;;;6.45;3.95;;;;;;;21.76;85.44;94814.66;4915977;29;20788;-75
2023/07/16 03:10:42;;;;;;;8.30;3.92;;;;;;;21.76;85.35;94809.13;4926032;29;20208;-75
2023/07/16 03:13:11;;;;;;;9.65;4.03;;;;;;;21.80;85.35;94814.66;4915293;29;20248;-75
2023/07/16 03:15:37;;;;;;;5.05;3.45;;;;;;;21.80;85.28;94820.97;4920539;29;20204;-75
2023/07/16 03:18:04;;;;;;;6.93;3.83;;;;;;;21.86;85.05;94819.41;4922350;29;20702;-75
2023/07/16 03:20:31;;;;;;;9.15;4.78;;;;;;;21.92;85.08;94820.56;4926033;29;20250;-74
2023/07/16 03:22:58;;;;;;;6.35;3.85;;;;;;;22.09;84.26;94820.97;4919181;29;20731;-73
2023/07/16 03:25:25;;;;;;;9.63;3.72;;;;;;;22.22;83.57;94820.16;4916470;29;20204;-74
2023/07/16 03:27:52;;;;;;;5.43;3.70;;;;;;;22.55;82.05;94820.88;4929803;29;20556;-75
2023/07/16 03:30:20;;;;;;;7.72;4.45;;;;;;;22.86;80.84;94830.22;4923504;29;20255;-77
2023/07/16 03:32:47;;;;;;;4.90;3.90;;;;;;;23.00;79.72;94821.88;4918125;29;20247;-75
2023/07/16 03:35:13;;;;;;;5.70;3.70;;;;;;;23.22;78.32;94828.88;4915978;29;20215;-75
2023/07/16 03:37:40;;;;;;;7.28;4.35;;;;;;;23.57;77.05;94829.88;4926729;29;20219;-75
2023/07/16 03:40:14;;;;;;;6.68;3.75;;;;;;;23.91;75.26;94821.72;4920681;29;20212;-75
2023/07/16 03:42:41;;;;;;;6.82;3.83;;;;;;;24.38;73.23;94834.75;4915101;29;20208;-75
2023/07/16 03:45:09;;;;;;;7.93;4.82;;;;;;;24.53;72.89;94834.59;4925721;29;20200;-75
2023/07/16 03:47:37;;;;;;;8.18;4.03;;;;;;;25.07;70.99;94841.13;4926346;29;20219;-75
2023/07/16 03:50:04;;;;;;;6.03;4.47;;;;;;;25.15;69.49;94831.50;4918120;29;20208;-74
2023/07/16 03:52:31;;;;;;;7.47;4.35;;;;;;;25.34;68.91;94830.84;4913754;29;20642;-75
2023/07/16 03:54:57;;;;;;;6.03;3.90;;;;;;;25.67;67.32;94818.13;4923129;29;20264;-75
2023/07/16 03:57:24;;;;;;;7.28;3.22;;;;;;;25.70;67.12;94822.00;4923080;29;20208;-75
2023/07/16 03:59:51;;;;;;;5.88;3.28;;;;;;;25.79;66.73;94827.84;4914338;29;20576;-76
2023/07/16 04:02:18;;;;;;;6.03;3.78;;;;;;;26.18;65.71;94827.97;4923701;29;20236;-75
2023/07/16 04:04:46;;;;;;;4.90;3.10;;;;;;;26.86;63.44;94833.09;4921602;29;20272;-75
2023/07/16 04:07:13;;;;;;;6.65;3.28;;;;;;;27.49;62.15;94827.41;4930429;29;20214;-74
2023/07/16 04:09:40;;;;;;;6.25;3.40;;;;;;;28.51;58.54;94830.97;4918266;29;20203;-76
2023/07/16 04:12:08;;;;;;;6.60;3.47;;;;;;;29.70;55.22;94822.41;4928309;29;20200;-76
2023/07/16 04:14:34;;;;;;;6.63;3.45;;;;;;;30.06;54.21;94827.69;4912847;29;20291;-76
2023/07/16 04:17:01;;;;;;;5.30;3.78;;;;;;;30.96;52.17;94818.59;4916300;29;20214;-76
2023/07/16 04:19:29;;;;;;;6.50;3.72;;;;;;;30.99;51.54;94828.88;4904329;29;20238;-77
2023/07/16 04:21:57;;;;;;;4.88;4.32;;;;;;;31.11;51.34;94829.31;4925651;29;20640;-76
2023/07/16 04:24:26;;;;;;;5.60;4.20;;;;;;;31.83;49.08;94823.38;4916955;29;20256;-76
2023/07/16 04:26:53;;;;;;;5.60;4.30;;;;;;;32.66;47.00;94827.19;4913911;29;20295;-76
2023/07/16 04:29:20;;;;;;;6.60;3.80;;;;;;;31.71;48.77;94830.59;4923503;29;20220;-77
2023/07/16 04:31:47;;;;;;;6.85;4.22;;;;;;;32.07;47.94;94830.00;4913178;29;20204;-76
2023/07/16 04:34:13;;;;;;;7.88;4.30;;;;;;;31.97;48.77;94836.81;4912694;29;20726;-77
2023/07/16 04:36:40;;;;;;;5.38;3.92;;;;;;;32.48;47.11;94836.34;4925693;29;20613;-77
2023/07/16 04:39:08;;;;;;;7.50;4.93;;;;;;;32.30;47.39;94842.69;4924426;29;20208;-76
2023/07/16 04:41:35;;;;;;;6.57;4.57;;;;;;;32.01;47.39;94836.66;4919990;29;20203;-76
2023/07/16 04:44:02;;;;;;;5.43;4.55;;;;;;;30.76;50.88;94843.28;4920280;29;20272;-76
2023/07/16 04:46:30;;;;;;;6.18;4.10;;;;;;;29.70;52.79;94844.75;4926568;29;20216;-77
2023/07/16 04:48:57;;;;;;;6.45;4.05;;;;;;;29.92;52.11;94850.47;4918563;29;20901;-75
2023/07/16 04:51:23;;;;;;;7.93;4.45;;;;;;;30.81;50.50;94842.72;4916324;29;20255;-75
2023/07/16 04:53:50;;;;;;;4.85;3.72;;;;;;;30.67;50.50;94854.41;4918447;29;20240;-75
2023/07/16 04:56:18;;;;;;;4.32;3.63;;;;;;;30.81;50.39;94850.34;4917119;29;20220;-77
2023/07/16 04:58:45;;;;;;;4.93;3.78;;;;;;;30.78;49.95;94854.03;4915930;29;20615;-75
2023/07/16 05:01:12;;;;;;;4.35;3.60;;;;;;;30.19;51.06;94859.19;4913388;29;20232;-76
2023/07/16 05:03:39;;;;;;;6.53;4.07;;;;;;;30.17;51.72;94849.69;4927035;29;20643;-75
2023/07/16 05:06:06;;;;;;;8.10;3.90;;;;;;;30.08;51.30;94853.16;4920077;29;20196;-76
2023/07/16 05:08:33;;;;;;;4.35;3.40;;;;;;;30.10;51.41;94853.47;4914804;29;20216;-75
2023/07/16 05:11:00;;;;;;;4.72;3.33;;;;;;;30.18;50.94;94857.63;4924567;29;20204;-75
2023/07/16 05:13:28;;;;;;;4.90;3.78;;;;;;;31.22;49.43;94852.09;4924185;29;20615;-76
2023/07/16 05:15:54;;;;;;;5.50;3.58;;;;;;;31.47;48.23;94854.72;4917573;29;20200;-76
2023/07/16 05:18:21;;;;;;;3.92;3.42;;;;;;;32.09;47.22;94849.16;4912477;29;20219;-76
2023/07/16 05:20:48;;;;;;;6.10;3.92;;;;;;;32.29;46.76;94851.56;4922166;29;20291;-76
2023/07/16 05:23:15;;;;;;;6.10;3.63;;;;;;;32.44;46.54;94853.31;4920988;29;20204;-76
2023/07/16 05:25:47;;;;;;;5.78;3.83;;;;;;;31.94;47.07;94862.94;4915830;29;20208;-76
2023/07/16 05:28:14;;;;;;;7.40;4.03;;;;;;;31.97;47.61;94858.47;4921449;29;20199;-76
2023/07/16 05:30:42;;;;;;;4.72;3.60;;;;;;;31.68;47.93;94859.56;4922020;29;20292;-75
2023/07/16 05:33:08;;;;;;;5.25;3.55;;;;;;;32.08;47.19;94847.59;4917498;29;20292;-75
2023/07/16 05:35:35;;;;;;;6.43;3.72;;;;;;;31.61;48.03;94859.78;4917347;29;20199;-74
2023/07/16 05:38:02;;;;;;;6.10;4.05;;;;;;;31.29;48.52;94865.84;4926751;29;20220;-74
2023/07/16 05:40:29;;;;;;;7.65;3.80;;;;;;;31.54;47.71;94865.69;4919308;29;20212;-75
2023/07/16 05:42:55;;;;;;;5.25;4.30;;;;;;;31.78;47.60;94858.38;4915107;29;20208;-75
2023/07/16 05:45:23;;;;;;;7.25;3.80;;;;;;;31.92;47.41;94867.44;4914677;29;20296;-76
2023/07/16 05:47:51;;;;;;;4.88;4.18;;;;;;;32.63;46.67;94864.59;4918588;29;20211;-75
2023/07/16 05:50:18;;;;;;;5.07;3.90;;;;;;;31.55;48.18;94878.44;4912049;29;20208;-76
2023/07/16 05:52:45;;;;;;;7.70;4.65;;;;;;;32.79;45.80;94858.72;4911964;29;20232;-76
2023/07/16 05:55:12;;;;;;;6.00;4.75;;;;;;;32.97;45.50;94875.56;4923247;29;20307;-76
2023/07/16 05:57:38;;;;;;;5.57;4.35;;;;;;;33.14;45.10;94879.63;4922050;29;20282;-74
2023/07/16 06:00:07;;;;;;;6.47;5.25;;;;;;;33.35;44.49;94879.97;4913327;29;20667;-75
2023/07/16 06:02:33;;;;;;;7.00;5.03;;;;;;;33.90;43.86;94869.38;4926489;29;20227;-75
2023/07/16 06:05:01;;;;;;;8.13;6.53;;;;;;;33.62;42.58;94877.09;4923742;29;20208;-76
2023/07/16 06:07:28;;;;;;;8.90;5.45;;;;;;;32.97;44.84;94878.34;4923231;29;20624;-75
2023/07/16 06:09:55;;;;;;;8.10;6.03;;;;;;;34.21;43.87;94877.53;4918491;29;20200;-75
2023/07/16 06:12:22;;;;;;;9.55;6.07;;;;;;;33.51;43.55;94885.22;4922657;29;20220;-77
2023/07/16 06:14:48;;;;;;;7.35;5.85;;;;;;;33.70;43.87;94883.16;4914583;29;20235;-77
2023/07/16 06:17:15;;;;;;;7.93;5.72;;;;;;;33.97;42.86;94880.31;4915906;29;20211;-78
2023/07/16 06:19:42;;;;;;;7.60;5.78;;;;;;;34.72;41.43;94877.44;4925716;29;20263;-77
2023/07/16 06:22:10;;;;;;;11.40;7.00;;;;;;;34.84;41.72;94872.88;4917111;29;20295;-77
2023/07/16 06:24:37;;;;;;;10.32;6.95;;;;;;;34.65;41.26;94882.66;4917245;29;20667;-76
2023/07/16 06:27:04;;;;;;;10.38;6.82;;;;;;;34.24;43.02;94882.22;4926951;29;20219;-78
2023/07/16 06:29:30;;;;;;;10.38;6.80;;;;;;;33.86;42.63;94869.56;4925195;29;20287;-77
2023/07/16 06:31:58;;;;;;;7.65;5.93;;;;;;;34.73;41.49;94866.97;4922349;29;20216;-75
2023/07/16 06:34:25;;;;;;;11.85;7.03;;;;;;;34.84;41.70;94873.66;4915699;29;20236;-76
2023/07/16 06:36:52;;;;;;;12.32;5.35;;;;;;;35.01;41.70;94876.81;4924833;29;20216;-77
2023/07/16 06:39:20;;;;;;;6.95;4.65;;;;;;;33.98;42.11;94875.47;4919591;29;20664;-77
2023/07/16 06:41:47;;;;;;;7.40;4.78;;;;;;;34.25;42.28;94872.53;4916761;29;20203;-77
2023/07/16 06:44:14;;;;;;;5.22;4.72;;;;;;;34.01;42.75;94874.53;4920064;29;20899;-77
2023/07/16 06:46:41;;;;;;;6.80;4.85;;;;;;;35.07;42.15;94869.25;4911920;29;20219;-76
2023/07/16 06:49:08;;;;;;;7.55;5.20;;;;;;;36.61;38.30;94860.44;4917379;29;20276;-76
2023/07/16 06:51:35;;;;;;;5.22;4.72;;;;;;;37.34;37.70;94859.31;4914467;29;20209;-80
2023/07/16 06:54:02;;;;;;;6.28;5.03;;;;;;;38.08;36.53;94866.47;4919475;29;20231;-76
2023/07/16 06:56:30;;;;;;;7.22;4.85;;;;;;;37.79;36.45;94862.63;4920152;29;20618;-78
2023/07/16 06:58:57;;;;;;;9.63;5.43;;;;;;;37.10;36.41;94867.22;4915581;29;20272;-78
2023/07/16 07:01:24;;;;;;;7.18;5.15;;;;;;;35.93;38.39;94865.50;4923673;29;20712;-75
2023/07/16 07:03:51;;;;;;;16.42;5.72;;;;;;;35.84;39.73;94863.56;4910887;29;20216;-80
2023/07/16 07:06:17;;;;;;;10.45;5.30;;;;;;;36.89;36.95;94866.47;4917583;29;20743;-80
2023/07/16 07:08:44;;;;;;;8.15;5.18;;;;;;;36.22;38.71;94864.69;4924878;29;20259;-82
2023/07/16 07:11:11;;;;;;;8.57;6.10;;;;;;;36.36;38.61;94865.97;4923878;29;20212;-78
2023/07/16 07:13:39;;;;;;;7.70;5.65;;;;;;;36.09;38.84;94867.03;4921825;29;20224;-78
2023/07/16 07:16:06;;;;;;;6.57;5.13;;;;;;;37.24;37.06;94862.78;4919756;29;20611;-79
2023/07/16 07:18:33;;;;;;;6.63;5.57;;;;;;;37.44;36.77;94859.16;4930233;29;20723;-78
2023/07/16 07:20:59;;;;;;;7.88;5.57;;;;;;;37.18;36.83;94859.91;4921073;29;20244;-79
2023/07/16 07:23:26;;;;;;;8.02;5.15;;;;;;;37.94;35.77;94857.63;4917477;29;20205;-76
2023/07/16 07:25:53;;;;;;;8.55;5.32;;;;;;;37.87;36.19;94863.72;4925965;29;20318;-76
2023/07/16 07:28:21;;;;;;;7.95;4.78;;;;;;;36.14;37.87;94858.66;4914306;29;20227;-76
2023/07/16 07:30:49;;;;;;;7.18;5.07;;;;;;;35.62;39.03;94858.28;4914050;29;20256;-76
2023/07/16 07:33:16;;;;;;;9.15;5.15;;;;;;;35.39;39.65;94867.63;4913254;29;20232;-79
2023/07/16 07:35:42;;;;;;;6.72;4.85;;;;;;;34.59;40.76;94869.25;4914314;29;20212;-76
2023/07/16 07:38:09;;;;;;;7.75;4.85;;;;;;;33.98;43.27;94864.22;4914037;29;21084;-76
2023/07/16 07:40:36;;;;;;;8.13;5.43;;;;;;;35.67;40.24;94853.25;4913881;29;20677;-76
2023/07/16 07:43:04;;;;;;;6.95;5.15;;;;;;;36.62;38.13;94859.16;4922013;29;20726;-77
2023/07/16 07:45:31;;;;;;;6.30;5.25;;;;;;;36.89;37.22;94848.75;4913481;29;20241;-78
2023/07/16 07:48:00;;;;;;;8.25;4.93;;;;;;;37.18;36.58;94853.47;4914658;29;20200;-77
2023/07/16 07:50:29;;;;;;;8.05;5.53;;;;;;;34.54;40.46;94864.28;4918198;29;20216;-78
2023/07/16 07:52:58;;;;;;;8.52;5.82;;;;;;;34.48;41.03;94869.00;4913588;29;20276;-78
2023/07/16 07:55:25;;;;;;;7.35;5.57;;;;;;;35.14;39.85;94849.16;4913743;29;20240;-78
2023/07/16 07:57:51;;;;;;;9.35;5.10;;;;;;;34.98;40.04;94851.66;4913126;29;20212;-78
2023/07/16 08:00:18;;;;;;;7.95;5.55;;;;;;;34.80;41.93;94856.16;4911614;29;20291;-78
2023/07/16 08:02:45;;;;;;;9.57;5.15;;;;;;;34.73;41.16;94850.06;4913005;29;20210;-78
2023/07/16 08:05:13;;;;;;;6.82;5.25;;;;;;;33.77;42.98;94861.16;4912867;29;20276;-77
2023/07/16 08:07:40;;;;;;;8.50;5.50;;;;;;;33.64;43.50;94863.34;4912413;29;20215;-77
2023/07/16 08:10:07;;;;;;;7.80;5.53;;;;;;;33.45;43.22;94861.84;4910324;29;20200;-77
2023/07/16 08:12:34;;;;;;;8.30;5.53;;;;;;;34.81;41.50;94856.94;4912741;29;20208;-77
2023/07/16 08:15:01;;;;;;;6.10;4.82;;;;;;;34.06;42.15;94859.78;4910054;29;20232;-77
2023/07/16 08:17:27;;;;;;;9.77;5.40;;;;;;;33.52;42.85;94861.50;4912863;29;20624;-76
2023/07/16 08:19:54;;;;;;;6.75;5.15;;;;;;;33.70;43.29;94855.84;4912087;29;20268;-77
2023/07/16 08:22:23;;;;;;;7.22;4.70;;;;;;;34.16;42.20;94850.09;4910508;29;20244;-78
2023/07/16 08:24:52;;;;;;;6.57;5.00;;;;;;;34.55;42.44;94846.16;4913113;29;20244;-78
2023/07/16 08:27:19;;;;;;;9.23;5.57;;;;;;;34.59;43.03;94852.34;4912956;29;20216;-78
2023/07/16 08:29:46;;;;;;;8.70;5.40;;;;;;;33.65;43.05;94864.91;4912481;29;20287;-77
2023/07/16 08:32:13;;;;;;;6.07;5.03;;;;;;;33.41;45.73;94861.22;4913327;29;20212;-77
2023/07/16 08:34:39;;;;;;;7.65;5.43;;;;;;;34.23;42.59;94858.16;4912639;29;20285;-75
2023/07/16 08:37:06;;;;;;;8.20;5.68;;;;;;;32.76;45.05;94859.66;4912599;29;20205;-79
2023/07/16 08:39:35;;;;;;;6.90;6.00;;;;;;;32.61;45.31;94867.06;4913233;29;20212;-78
2023/07/16 08:42:03;;;;;;;6.25;5.43;;;;;;;33.14;46.35;94865.56;4912565;29;20208;-75
2023/07/16 08:44:31;;;;;;;8.75;6.13;;;;;;;33.05;45.61;94862.78;4911911;29;20217;-75
2023/07/16 08:46:58;;;;;;;8.75;6.45;;;;;;;32.85;45.89;94854.03;4911984;29;20216;-75
2023/07/16 08:49:26;;;;;;;8.40;5.78;;;;;;;33.31;45.04;94854.06;4912495;29;20604;-76
2023/07/16 08:51:55;;;;;;;10.40;6.10;;;;;;;33.65;44.37;94848.03;4912303;29;20679;-76
2023/07/16 08:54:25;;;;;;;7.47;6.65;;;;;;;33.34;45.54;94850.31;4918672;29;20723;-76
2023/07/16 08:56:53;;;;;;;10.63;6.20;;;;;;;33.71;46.30;94848.97;4912100;29;20217;-76
2023/07/16 08:59:21;;;;;;;7.60;6.60;;;;;;;33.90;44.14;94849.69;4911927;29;20209;-73
2023/07/16 09:01:49;;;;;;;8.38;6.68;;;;;;;33.52;44.58;94850.25;4912356;29;20299;-74
2023/07/16 09:04:16;;;;;;;10.30;7.63;;;;;;;33.32;44.20;94841.56;4912161;29;20208;-75
2023/07/16 09:06:43;;;;;;;10.68;6.88;;;;;;;33.78;43.91;94845.84;4911298;29;20208;-76
2023/07/16 09:09:10;;;;;;;11.20;6.80;;;;;;;34.20;43.83;94836.59;4912190;29;20212;-76
2023/07/16 09:11:36;;;;;;;10.48;7.05;;;;;;;34.12;43.66;94835.41;4911971;29;20219;-80
2023/07/16 09:14:04;;;;;;;14.23;7.70;;;;;;;33.76;43.33;94837.09;4910270;29;20335;-76
2023/07/16 09:16:33;;;;;;;11.00;7.15;;;;;;;33.43;44.99;94836.25;4911829;29;20208;-77
2023/07/16 09:19:07;;;;;;;10.30;6.75;;;;;;;33.26;45.99;94837.81;4912228;29;20216;-78
2023/07/16 09:21:35;;;;;;;8.45;7.05;;;;;;;33.55;45.59;94840.88;4912243;29;20331;-76
2023/07/16 09:24:08;;;;;;;12.70;6.57;;;;;;;33.88;43.93;94833.34;4912478;29;20208;-80
2023/07/16 09:26:37;;;;;;;9.90;6.55;;;;;;;33.42;44.78;94835.47;4912533;29;20292;-74
2023/07/16 09:29:08;;;;;;;7.90;6.38;;;;;;;33.54;44.73;94839.31;4911648;29;20697;-72
2023/07/16 09:31:35;;;;;;;8.48;6.20;;;;;;;33.36;45.17;94836.53;4912495;29;20275;-74
2023/07/16 09:34:01;;;;;;;9.35;6.63;;;;;;;33.30;45.27;94827.22;4911320;29;20699;-73
2023/07/16 09:36:28;;;;;;;8.32;6.30;;;;;;;33.53;44.70;94832.16;4912043;29;20212;-76
2023/07/16 09:38:58;;;;;;;9.05;6.80;;;;;;;33.94;45.17;94829.84;4911435;29;20204;-75
2023/07/16 09:41:25;;;;;;;9.40;6.80;;;;;;;33.47;44.38;94834.06;4911606;29;20212;-77
2023/07/16 09:43:52;;;;;;;9.10;7.03;;;;;;;33.93;43.92;94828.28;4911778;29;20208;-78
2023/07/16 09:46:20;;;;;;;7.22;6.43;;;;;;;33.51;45.04;94832.63;4910363;29;20209;-77
2023/07/16 09:48:47;;;;;;;8.30;6.95;;;;;;;33.23;44.93;94827.47;4910698;29;20211;-74
2023/07/16 09:51:15;;;;;;;11.80;7.00;;;;;;;32.91;45.73;94824.09;4911125;29;20243;-74
2023/07/16 09:53:43;;;;;;;9.07;7.07;;;;;;;33.59;44.97;94821.84;4910367;29;20275;-74
2023/07/16 09:56:13;;;;;;;9.32;7.60;;;;;;;33.23;45.74;94821.88;4907644;29;20260;-74
2023/07/16 09:58:41;;;;;;;8.82;7.38;;;;;;;33.57;46.00;94807.47;4911775;29;20676;-73
2023/07/16 10:01:09;;;;;;;9.98;7.38;;;;;;;34.07;43.66;94814.31;4911646;29;20254;-74
2023/07/16 10:03:37;;;;;;;11.57;7.80;;;;;;;33.76;43.29;94814.59;4912335;29;20208;-75
2023/07/16 10:06:08;;;;;;;9.55;7.47;;;;;;;33.11;44.37;94815.97;4911874;29;20474;-77
2023/07/16 10:08:35;;;;;;;9.23;7.85;;;;;;;32.48;46.11;94808.28;4911873;29;20714;-77
2023/07/16 10:11:02;;;;;;;11.85;8.18;;;;;;;32.42;46.64;94805.31;4911695;29;20569;-75
2023/07/16 10:13:29;;;;;;;11.57;8.40;;;;;;;33.07;44.64;94804.13;4911321;29;20210;-75
2023/07/16 10:15:57;;;;;;;9.57;8.20;;;;;;;33.44;44.89;94804.09;4911268;29;20232;-75
2023/07/16 10:18:31;;;;;;;10.07;7.55;;;;;;;34.37;42.54;94795.59;4910847;29;20208;-76
2023/07/16 10:21:05;;;;;;;10.48;7.63;;;;;;;34.50;42.80;94798.16;4910185;29;20731;-77
2023/07/16 10:23:40;;;;;;;10.10;7.93;;;;;;;34.69;42.82;94793.19;4911429;29;20239;-75
2023/07/16 10:26:12;;;;;;;10.10;7.72;;;;;;;33.79;44.26;94791.19;4911514;29;20245;-76
2023/07/16 10:28:39;;;;;;;12.80;7.95;;;;;;;33.95;44.21;94800.47;4911609;29;20261;-78
2023/07/16 10:31:07;;;;;;;11.18;7.30;;;;;;;34.08;45.09;94792.59;4910790;29;20684;-76
2023/07/16 10:33:37;;;;;;;10.70;7.25;;;;;;;34.03;44.14;94784.84;4911131;29;20212;-76
2023/07/16 10:36:05;;;;;;;10.90;7.85;;;;;;;34.53;43.13;94786.75;4911428;29;20236;-75
2023/07/16 10:38:41;;;;;;;12.05;7.85;;;;;;;34.80;42.78;94779.38;4911777;29;20220;-76
2023/07/16 10:41:08;;;;;;;8.40;7.47;;;;;;;34.20;42.87;94785.97;4911724;29;20763;-79
2023/07/16 10:43:35;;;;;;;10.82;7.95;;;;;;;33.37;44.58;94790.34;4911672;29;20224;-73
2023/07/16 10:46:03;;;;;;;13.35;8.00;;;;;;;33.48;44.87;94787.84;4913499;29;20205;-73
2023/07/16 10:48:30;;;;;;;8.35;7.50;;;;;;;33.47;44.94;94791.91;4914995;29;20213;-74
2023/07/16 10:50:57;;;;;;;13.63;8.15;;;;;;;34.10;42.80;94781.66;4914742;29;20264;-73
2023/07/16 10:53:25;;;;;;;9.98;7.82;;;;;;;34.35;42.38;94780.44;4914924;29;20276;-75
2023/07/16 10:55:52;;;;;;;9.57;7.75;;;;;;;34.46;41.75;94781.47;4914563;29;20335;-75
2023/07/16 10:58:19;;;;;;;11.20;8.32;;;;;;;34.14;43.13;94776.66;4914745;29;20208;-75
2023/07/16 11:00:46;;;;;;;11.02;8.02;;;;;;;33.85;43.58;94783.66;4914920;29;20283;-78
2023/07/16 11:03:16;;;;;;;9.93;8.00;;;;;;;34.18;44.86;94766.75;4914426;29;20247;-78
2023/07/16 11:05:45;;;;;;;16.73;8.00;;;;;;;34.27;42.46;94771.59;4920086;29;20263;-77
2023/07/16 11:08:22;;;;;;;11.23;8.38;;;;;;;32.97;45.52;94780.09;4920278;29;20612;-75
2023/07/16 11:10:55;;;;;;;11.63;8.00;;;;;;;33.27;45.24;94777.59;4915342;29;20259;-72
2023/07/16 11:13:26;;;;;;;9.48;7.28;;;;;;;34.14;43.55;94765.41;4914669;29;20291;-73
2023/07/16 11:15:53;;;;;;;11.20;7.68;;;;;;;34.31;43.77;94762.97;4914921;29;20228;-76
2023/07/16 11:18:23;;;;;;;12.55;7.75;;;;;;;33.76;42.85;94763.25;4913865;29;20216;-76
2023/07/16 11:20:52;;;;;;;10.23;7.57;;;;;;;34.36;42.45;94760.28;4913961;29;20247;-77
2023/07/16 11:23:18;;;;;;;15.07;7.93;;;;;;;34.51;41.81;94755.47;4914517;29;20216;-77
2023/07/16 11:25:47;;;;;;;8.73;7.82;;;;;;;35.22;41.63;94757.38;4915119;29;20204;-78
2023/07/16 11:28:16;;;;;;;12.20;7.57;;;;;;;35.34;40.24;94751.97;4914255;29;20532;-77
2023/07/16 11:30:43;;;;;;;8.85;7.53;;;;;;;35.54;40.83;94747.16;4914784;29;20216;-77
2023/07/16 11:33:11;;;;;;;11.75;7.63;;;;;;;35.32;40.16;94755.25;4914195;29;20216;-75